createdAt,value
2019-04-26T00:01:16.087Z,2.80
2019-04-26T00:03:46.964Z,2.13
2019-04-26T00:06:16.978Z,3.90
2019-04-26T00:08:48.154Z,2.60
2019-04-26T00:11:20.243Z,3.00
2019-04-26T00:14:07.213Z,1.43
2019-04-26T00:16:56.162Z,3.77
2019-04-26T00:19:25.969Z,2.90
2019-04-26T00:21:55.705Z,4.23
2019-04-26T00:24:28.269Z,3.40
2019-04-26T00:26:56.838Z,3.50
2019-04-26T00:29:26.312Z,2.77
2019-04-26T00:31:55.790Z,1.77
2019-04-26T00:34:25.272Z,2.70
2019-04-26T00:36:54.761Z,3.20
2019-04-26T00:39:25.089Z,2.47
2019-04-26T00:41:54.867Z,3.23
2019-04-26T00:44:24.418Z,6.83
2019-04-26T00:46:57.328Z,3.80
2019-04-26T00:49:28.751Z,4.07
2019-04-26T00:51:58.538Z,4.07
2019-04-26T00:54:28.967Z,3.60
2019-04-26T00:56:58.872Z,2.07
2019-04-26T00:59:28.769Z,3.40
2019-04-26T01:01:59.949Z,2.80
2019-04-26T01:04:29.443Z,2.77
2019-04-26T01:06:59.896Z,1.97
2019-04-26T01:09:29.363Z,2.67
2019-04-26T01:11:58.880Z,3.10
2019-04-26T01:14:28.419Z,4.10
2019-04-26T01:16:57.903Z,4.13
2019-04-26T01:19:27.932Z,4.53
2019-04-26T01:22:05.240Z,3.57
2019-04-26T01:24:36.660Z,4.33
2019-04-26T01:27:07.560Z,4.60
2019-04-26T01:29:38.885Z,1.70
2019-04-26T01:32:13.370Z,4.27
2019-04-26T01:34:44.795Z,2.70
2019-04-26T01:37:14.592Z,4.27
2019-04-26T01:39:50.376Z,2.73
2019-04-26T01:42:22.737Z,2.60
2019-04-26T01:44:57.140Z,3.20
2019-04-26T01:47:26.829Z,2.90
2019-04-26T01:49:56.619Z,2.77
2019-04-26T01:52:26.081Z,3.30
2019-04-26T01:54:55.825Z,4.37
2019-04-26T01:57:27.995Z,4.40
2019-04-26T02:00:02.763Z,1.77
2019-04-26T02:02:33.850Z,2.57
2019-04-26T02:05:14.498Z,2.83
2019-04-26T02:07:44.295Z,2.60
2019-04-26T02:10:20.118Z,3.57
2019-04-26T02:12:50.277Z,2.70
2019-04-26T02:15:24.469Z,2.67
2019-04-26T02:17:57.525Z,3.30
2019-04-26T02:20:52.811Z,3.40
2019-04-26T02:23:32.078Z,4.17
2019-04-26T02:26:19.394Z,4.17
2019-04-26T02:28:49.844Z,3.87
2019-04-26T02:31:20.042Z,2.10
2019-04-26T02:33:50.366Z,3.40
2019-04-26T02:36:20.794Z,2.90
2019-04-26T02:38:51.071Z,3.17
2019-04-26T02:41:20.658Z,3.43
2019-04-26T02:43:53.788Z,2.87
2019-04-26T02:46:31.303Z,2.83
2019-04-26T02:49:05.724Z,3.40
2019-04-26T02:51:42.525Z,6.73
2019-04-26T02:54:29.074Z,9.40
2019-04-26T02:57:01.180Z,5.43
2019-04-26T02:59:40.710Z,2.73
2019-04-26T03:02:14.547Z,3.53
2019-04-26T03:04:46.414Z,2.53
2019-04-26T03:07:23.382Z,3.20
2019-04-26T03:09:54.182Z,2.47
2019-04-26T03:12:28.470Z,3.17
2019-04-26T03:15:17.706Z,3.60
2019-04-26T03:18:09.289Z,3.77
2019-04-26T03:20:42.889Z,4.40
2019-04-26T03:23:56.066Z,7.20
2019-04-26T03:26:24.192Z,3.37
2019-04-26T03:29:07.045Z,3.47
2019-04-26T03:31:54.982Z,2.53
2019-04-26T03:34:50.788Z,3.43
2019-04-26T03:37:46.925Z,3.60
2019-04-26T03:40:48.184Z,3.00
2019-04-26T03:43:52.399Z,3.90
2019-04-26T03:46:39.814Z,4.00
2019-04-26T03:49:47.009Z,2.87
2019-04-26T03:52:23.795Z,3.20
2019-04-26T03:55:04.242Z,5.17
2019-04-26T03:58:15.314Z,4.43
2019-04-26T04:00:46.916Z,3.77
2019-04-26T04:03:40.293Z,4.07
2019-04-26T04:06:13.023Z,3.83
2019-04-26T04:09:01.729Z,4.40
2019-04-26T04:12:10.078Z,3.63
2019-04-26T04:14:40.690Z,5.03
2019-04-26T04:17:21.975Z,3.80
2019-04-26T04:20:10.485Z,3.80
2019-04-26T04:22:53.194Z,3.97
2019-04-26T04:25:49.436Z,3.40
2019-04-26T04:28:54.822Z,3.07
2019-04-26T04:31:41.649Z,2.97
2019-04-26T04:34:30.758Z,7.87
2019-04-26T04:37:03.707Z,3.87
2019-04-26T04:40:13.114Z,3.40
2019-04-26T04:43:09.341Z,2.83
2019-04-26T04:46:35.713Z,3.60
2019-04-26T04:49:23.135Z,4.27
2019-04-26T04:52:11.219Z,3.73
2019-04-26T04:55:06.628Z,3.67
2019-04-26T04:57:41.935Z,3.30
2019-04-26T05:00:32.308Z,3.10
2019-04-26T05:03:34.832Z,2.90
2019-04-26T05:06:38.245Z,3.67
2019-04-26T05:09:12.077Z,3.00
2019-04-26T05:12:06.719Z,1.77
2019-04-26T05:14:46.763Z,13.50
2019-04-26T05:17:53.834Z,10.33
2019-04-26T05:21:05.117Z,6.00
2019-04-26T05:23:53.776Z,4.87
2019-04-26T05:26:43.934Z,3.90
2019-04-26T05:29:39.069Z,3.37
2019-04-26T05:32:52.630Z,3.23
2019-04-26T05:35:49.083Z,3.20
2019-04-26T05:38:31.658Z,3.20
2019-04-26T05:41:51.527Z,2.90
2019-04-26T05:44:38.351Z,3.83
2019-04-26T05:47:22.532Z,3.90
2019-04-26T05:50:37.030Z,4.40
2019-04-26T05:53:46.254Z,3.80
2019-04-26T05:56:27.667Z,5.57
2019-04-26T05:59:24.331Z,3.93
2019-04-26T06:02:51.292Z,3.73
2019-04-26T06:05:35.470Z,2.90
2019-04-26T06:08:32.368Z,4.30
2019-04-26T06:11:15.436Z,8.83
2019-04-26T06:14:08.803Z,3.07
2019-04-26T06:17:23.842Z,4.00
2019-04-26T06:20:23.015Z,4.50
2019-04-26T06:23:16.974Z,3.30
2019-04-26T06:26:40.683Z,5.00
2019-04-26T06:29:35.483Z,3.97
2019-04-26T06:32:15.351Z,3.40
2019-04-26T06:35:07.354Z,2.20
2019-04-26T06:38:20.082Z,3.20
2019-04-26T06:41:28.128Z,4.27
2019-04-26T06:44:08.732Z,4.47
2019-04-26T06:47:08.111Z,4.60
2019-04-26T06:50:16.408Z,4.13
2019-04-26T06:53:20.232Z,3.00
2019-04-26T06:55:59.112Z,3.97
2019-04-26T06:58:45.932Z,4.80
2019-04-26T07:01:36.229Z,3.10
2019-04-26T07:04:47.201Z,7.20
2019-04-26T07:07:32.595Z,2.47
2019-04-26T07:10:09.516Z,4.20
2019-04-26T07:13:22.224Z,6.60
2019-04-26T07:16:22.391Z,5.03
2019-04-26T07:18:54.503Z,5.70
2019-04-26T07:22:14.453Z,6.03
2019-04-26T07:25:28.442Z,5.90
2019-04-26T07:28:18.611Z,7.83
2019-04-26T07:31:02.624Z,5.20
2019-04-26T07:33:56.118Z,4.70
2019-04-26T07:36:49.682Z,4.97
2019-04-26T07:39:37.122Z,5.50
2019-04-26T07:42:48.800Z,5.40
2019-04-26T07:45:53.079Z,5.17
2019-04-26T07:48:32.796Z,6.70
2019-04-26T07:51:29.893Z,7.87
2019-04-26T07:54:47.777Z,9.87
2019-04-26T07:57:48.621Z,7.80
2019-04-26T08:00:21.902Z,7.10
2019-04-26T08:03:21.587Z,6.90
2019-04-26T08:06:07.495Z,7.13
2019-04-26T08:08:41.691Z,8.23
2019-04-26T08:11:33.318Z,6.83
2019-04-26T08:14:13.229Z,10.27
2019-04-26T08:17:04.796Z,10.10
2019-04-26T08:19:53.605Z,7.23
2019-04-26T08:22:28.533Z,10.40
2019-04-26T08:24:57.017Z,8.40
2019-04-26T08:27:29.252Z,6.97
2019-04-26T08:30:07.647Z,7.40
2019-04-26T08:32:39.130Z,6.57
2019-04-26T08:35:18.287Z,7.70
2019-04-26T08:37:49.733Z,6.60
2019-04-26T08:40:28.072Z,8.47
2019-04-26T08:43:12.094Z,7.87
2019-04-26T08:46:02.804Z,8.10
2019-04-26T08:48:47.277Z,7.80
2019-04-26T08:51:22.123Z,6.77
2019-04-26T08:53:54.838Z,9.27
2019-04-26T08:56:36.833Z,6.43
2019-04-26T08:59:16.676Z,5.50
2019-04-26T09:01:54.915Z,7.50
2019-04-26T09:04:30.891Z,5.23
2019-04-26T09:07:08.073Z,6.10
2019-04-26T09:09:39.525Z,5.37
2019-04-26T09:12:22.924Z,6.00
2019-04-26T09:14:52.198Z,6.90
2019-04-26T09:17:21.622Z,5.40
2019-04-26T09:19:51.068Z,4.70
2019-04-26T09:22:26.421Z,4.73
2019-04-26T09:25:03.729Z,6.77
2019-04-26T09:27:46.627Z,6.37
2019-04-26T09:30:17.955Z,4.70
2019-04-26T09:32:51.604Z,3.13
2019-04-26T09:35:21.012Z,3.87
2019-04-26T09:37:50.693Z,2.90
2019-04-26T09:40:22.653Z,3.97
2019-04-26T09:43:03.324Z,4.70
2019-04-26T09:45:34.469Z,3.80
2019-04-26T09:48:10.930Z,3.50
2019-04-26T09:50:44.673Z,6.20
2019-04-26T09:53:14.372Z,4.10
2019-04-26T09:55:43.795Z,4.13
2019-04-26T09:58:13.234Z,3.63
2019-04-26T10:00:44.176Z,3.87
2019-04-26T10:03:13.982Z,4.97
2019-04-26T10:05:43.409Z,4.00
2019-04-26T10:08:14.571Z,5.40
2019-04-26T10:10:44.084Z,7.80
2019-04-26T10:13:29.991Z,3.97
2019-04-26T10:16:07.765Z,6.13
2019-04-26T10:18:38.682Z,6.40
2019-04-26T10:21:08.111Z,4.40
2019-04-26T10:23:37.536Z,8.30
2019-04-26T10:26:07.517Z,4.33
2019-04-26T10:28:36.945Z,3.77
2019-04-26T10:31:06.378Z,4.10
2019-04-26T10:33:36.556Z,3.93
2019-04-26T10:36:06.188Z,4.60
2019-04-26T10:38:35.642Z,5.20
2019-04-26T10:41:05.382Z,5.27
2019-04-26T10:43:34.810Z,5.60
2019-04-26T10:46:04.419Z,8.90
2019-04-26T10:48:33.848Z,8.33
2019-04-26T10:51:07.178Z,5.30
2019-04-26T10:53:44.842Z,5.17
2019-04-26T10:56:31.567Z,5.00
2019-04-26T10:59:22.661Z,4.77
2019-04-26T11:01:51.410Z,4.00
2019-04-26T11:04:20.839Z,5.10
2019-04-26T11:06:50.265Z,5.50
2019-04-26T11:09:19.906Z,5.07
2019-04-26T11:11:49.415Z,2.93
2019-04-26T11:14:22.680Z,4.80
2019-04-26T11:16:50.008Z,4.40
2019-04-26T11:19:19.445Z,6.57
2019-04-26T11:21:50.979Z,5.53
2019-04-26T11:24:20.958Z,7.10
2019-04-26T11:26:50.337Z,5.13
2019-04-26T11:29:19.783Z,3.90
2019-04-26T11:31:49.203Z,4.47
2019-04-26T11:34:19.170Z,4.27
2019-04-26T11:36:50.056Z,4.20
2019-04-26T11:39:19.708Z,6.00
2019-04-26T11:41:49.216Z,5.33
2019-04-26T11:44:18.788Z,6.87
2019-04-26T11:46:48.225Z,5.10
2019-04-26T11:49:17.688Z,5.20
2019-04-26T11:51:47.137Z,5.87
2019-04-26T11:54:16.987Z,6.83
2019-04-26T11:56:50.224Z,7.47
2019-04-26T11:59:18.889Z,6.60
2019-04-26T12:01:48.319Z,7.20
2019-04-26T12:04:22.091Z,8.10
2019-04-26T12:06:53.160Z,6.80
2019-04-26T12:09:24.275Z,7.70
2019-04-26T12:12:03.937Z,9.60
2019-04-26T12:14:24.832Z,7.70
2019-04-26T12:16:59.242Z,7.33
2019-04-26T12:19:25.422Z,8.90
2019-04-26T12:21:54.871Z,9.60
2019-04-26T12:24:25.266Z,8.27
2019-04-26T12:26:56.319Z,10.00
2019-04-26T12:29:26.924Z,10.70
2019-04-26T12:31:57.030Z,8.73
2019-04-26T12:34:26.466Z,8.10
2019-04-26T12:36:55.899Z,10.20
2019-04-26T12:39:25.419Z,8.50
2019-04-26T12:41:54.918Z,8.57
2019-04-26T12:44:26.005Z,8.43
2019-04-26T12:46:59.294Z,9.27
2019-04-26T12:49:28.412Z,9.60
2019-04-26T12:51:57.855Z,6.73
2019-04-26T12:54:27.285Z,8.90
2019-04-26T12:56:56.718Z,7.23
2019-04-26T12:59:26.842Z,7.60
2019-04-26T13:02:05.460Z,8.03
2019-04-26T13:04:35.916Z,6.67
2019-04-26T13:07:08.581Z,8.43
2019-04-26T13:09:39.764Z,8.00
2019-04-26T13:12:08.974Z,6.80
2019-04-26T13:14:38.770Z,9.90
2019-04-26T13:17:16.403Z,7.30
2019-04-26T13:19:49.521Z,8.37
2019-04-26T13:22:16.982Z,8.40
2019-04-26T13:24:46.442Z,9.67
2019-04-26T13:27:15.888Z,10.57
2019-04-26T13:29:48.095Z,11.03
2019-04-26T13:32:16.489Z,8.80
2019-04-26T13:34:45.936Z,9.67
2019-04-26T13:37:15.375Z,10.27
2019-04-26T13:39:44.811Z,8.50
2019-04-26T13:42:17.400Z,7.67
2019-04-26T13:44:53.019Z,8.70
2019-04-26T13:47:30.720Z,10.57
2019-04-26T13:50:04.486Z,10.83
2019-04-26T13:52:33.937Z,9.50
2019-04-26T13:55:03.935Z,11.43
2019-04-26T13:57:33.381Z,10.63
2019-04-26T14:00:07.600Z,9.60
2019-04-26T14:02:34.439Z,7.80
2019-04-26T14:05:03.935Z,12.60
2019-04-26T14:07:33.453Z,13.07
2019-04-26T14:10:02.885Z,10.20
2019-04-26T14:12:32.331Z,9.07
2019-04-26T14:15:04.591Z,11.80
2019-04-26T14:17:32.946Z,11.10
2019-04-26T14:20:02.380Z,10.00
2019-04-26T14:22:33.487Z,11.87
2019-04-26T14:25:04.564Z,12.27
2019-04-26T14:27:35.652Z,10.53
2019-04-26T14:30:08.369Z,10.00
2019-04-26T14:32:37.817Z,13.67
2019-04-26T14:35:07.561Z,12.40
2019-04-26T14:37:37.004Z,15.37
2019-04-26T14:40:16.869Z,12.10
2019-04-26T14:42:46.049Z,12.47
2019-04-26T14:45:22.755Z,15.67
2019-04-26T14:47:47.654Z,13.30
2019-04-26T14:50:14.520Z,13.10
2019-04-26T14:52:44.122Z,10.70
2019-04-26T14:55:16.476Z,12.73
2019-04-26T14:57:46.708Z,12.90
2019-04-26T15:00:16.806Z,11.63
2019-04-26T15:03:05.262Z,12.00
2019-04-26T15:05:46.489Z,10.00
2019-04-26T15:08:15.951Z,7.93
2019-04-26T15:10:48.908Z,9.70
2019-04-26T15:13:20.639Z,11.03
2019-04-26T15:15:47.733Z,11.27
2019-04-26T15:18:17.248Z,12.30
2019-04-26T15:20:46.675Z,9.00
2019-04-26T15:23:19.466Z,9.90
2019-04-26T15:25:48.490Z,9.83
2019-04-26T15:28:18.451Z,13.70
2019-04-26T15:30:48.057Z,10.67
2019-04-26T15:33:17.502Z,9.30
2019-04-26T15:35:48.002Z,8.10
2019-04-26T15:38:17.446Z,12.67
2019-04-26T15:40:58.358Z,7.83
2019-04-26T15:43:34.838Z,8.97
2019-04-26T15:46:14.395Z,11.27
2019-04-26T15:48:54.486Z,12.80
2019-04-26T15:51:32.425Z,13.07
2019-04-26T15:54:01.908Z,15.40
2019-04-26T15:56:32.435Z,9.30
2019-04-26T15:59:02.813Z,10.50
2019-04-26T16:01:32.617Z,8.53
2019-04-26T16:04:06.061Z,11.80
2019-04-26T16:06:33.290Z,8.50
2019-04-26T16:09:02.835Z,11.90
2019-04-26T16:11:32.254Z,9.40
2019-04-26T16:14:02.173Z,13.37
2019-04-26T16:16:34.168Z,11.70
2019-04-26T16:19:03.060Z,9.70
2019-04-26T16:21:32.557Z,9.23
2019-04-26T16:24:02.815Z,15.73
2019-04-26T16:26:32.962Z,11.30
2019-04-26T16:29:02.319Z,9.07
2019-04-26T16:31:34.279Z,10.10
2019-04-26T16:34:10.625Z,11.23
2019-04-26T16:36:42.206Z,9.77
2019-04-26T16:39:13.106Z,9.70
2019-04-26T16:41:42.683Z,9.40
2019-04-26T16:44:13.089Z,16.73
2019-04-26T16:46:43.849Z,10.40
2019-04-26T16:49:14.254Z,12.13
2019-04-26T16:51:43.829Z,20.40
2019-04-26T16:54:20.957Z,17.40
2019-04-26T16:56:44.409Z,13.00
2019-04-26T16:59:22.184Z,9.20
2019-04-26T17:01:47.327Z,14.03
2019-04-26T17:04:20.211Z,15.13
2019-04-26T17:06:47.578Z,13.73
2019-04-26T17:09:17.025Z,13.17
2019-04-26T17:11:46.462Z,10.10
2019-04-26T17:14:16.131Z,20.70
2019-04-26T17:16:45.583Z,12.40
2019-04-26T17:19:15.031Z,11.23
2019-04-26T17:21:46.123Z,10.40
2019-04-26T17:24:28.713Z,19.67
2019-04-26T17:27:05.389Z,9.00
2019-04-26T17:29:33.806Z,10.60
2019-04-26T17:32:04.866Z,10.63
2019-04-26T17:34:34.376Z,12.93
2019-04-26T17:37:09.400Z,11.10
2019-04-26T17:39:34.977Z,11.23
2019-04-26T17:42:04.476Z,11.27
2019-04-26T17:44:34.165Z,13.50
2019-04-26T17:47:03.641Z,13.40
2019-04-26T17:49:35.002Z,12.13
2019-04-26T17:52:04.232Z,10.60
2019-04-26T17:54:46.292Z,11.80
2019-04-26T17:57:08.708Z,12.17
2019-04-26T17:59:36.992Z,10.53
2019-04-26T18:02:18.319Z,11.00
2019-04-26T18:04:40.626Z,9.90
2019-04-26T18:07:34.682Z,12.10
2019-04-26T18:09:44.687Z,10.60
2019-04-26T18:12:11.866Z,9.10
2019-04-26T18:14:41.441Z,12.70
2019-04-26T18:17:12.507Z,10.87
2019-04-26T18:19:52.278Z,12.00
2019-04-26T18:22:36.407Z,12.17
2019-04-26T18:25:11.226Z,11.10
2019-04-26T18:27:39.537Z,11.67
2019-04-26T18:30:12.245Z,13.23
2019-04-26T18:32:44.217Z,13.37
2019-04-26T18:35:15.242Z,12.20
2019-04-26T18:37:43.042Z,11.50
2019-04-26T18:40:12.732Z,16.70
2019-04-26T18:42:43.350Z,13.63
2019-04-26T18:45:13.903Z,11.80
2019-04-26T18:47:45.174Z,13.10
2019-04-26T18:50:15.871Z,11.23
2019-04-26T18:53:03.273Z,15.23
2019-04-26T18:55:34.548Z,16.87
2019-04-26T18:58:05.613Z,15.20
2019-04-26T19:00:36.894Z,11.93
2019-04-26T19:03:06.672Z,27.93
2019-04-26T19:05:36.201Z,10.67
2019-04-26T19:08:07.661Z,14.67
2019-04-26T19:10:37.205Z,20.50
2019-04-26T19:13:24.185Z,15.40
2019-04-26T19:15:55.378Z,14.00
2019-04-26T19:18:44.776Z,13.97
2019-04-26T19:21:32.329Z,12.07
2019-04-26T19:24:07.473Z,14.90
2019-04-26T19:26:35.014Z,13.37
2019-04-26T19:29:15.492Z,10.13
2019-04-26T19:31:35.164Z,10.97
2019-04-26T19:34:04.614Z,13.90
2019-04-26T19:36:34.063Z,12.83
2019-04-26T19:39:05.254Z,11.80
2019-04-26T19:41:34.737Z,11.00
2019-04-26T19:44:04.240Z,11.37
2019-04-26T19:46:36.541Z,10.53
2019-04-26T19:49:10.012Z,11.87
2019-04-26T19:51:59.753Z,15.60
2019-04-26T19:54:38.430Z,15.67
2019-04-26T19:57:25.094Z,16.07
2019-04-26T19:59:54.528Z,15.33
2019-04-26T20:02:26.817Z,15.00
2019-04-26T20:04:55.139Z,16.43
2019-04-26T20:07:28.324Z,13.60
2019-04-26T20:09:56.346Z,12.00
2019-04-26T20:12:29.428Z,14.07
2019-04-26T20:14:58.654Z,15.67
2019-04-26T20:17:28.058Z,11.80
2019-04-26T20:19:57.585Z,14.17
2019-04-26T20:22:29.999Z,12.50
2019-04-26T20:24:58.264Z,15.27
2019-04-26T20:27:28.044Z,14.27
2019-04-26T20:29:57.501Z,13.90
2019-04-26T20:32:32.007Z,12.87
2019-04-26T20:35:05.930Z,12.07
2019-04-26T20:37:35.380Z,11.60
2019-04-26T20:40:18.613Z,15.50
2019-04-26T20:42:38.987Z,18.17
2019-04-26T20:45:11.310Z,32.97
2019-04-26T20:47:41.629Z,27.93
2019-04-26T20:50:12.036Z,18.50
2019-04-26T20:52:45.208Z,14.77
2019-04-26T20:55:13.936Z,14.10
2019-04-26T20:57:44.847Z,14.03
2019-04-26T21:00:15.060Z,13.30
2019-04-26T21:02:44.510Z,10.60
2019-04-26T21:05:14.863Z,11.67
2019-04-26T21:07:49.452Z,9.70
2019-04-26T21:10:21.771Z,10.80
2019-04-26T21:12:47.463Z,11.00
2019-04-26T21:15:20.178Z,13.30
2019-04-26T21:17:49.613Z,13.67
2019-04-26T21:20:19.051Z,14.43
2019-04-26T21:22:48.483Z,11.40
2019-04-26T21:25:32.551Z,11.90
2019-04-26T21:28:02.485Z,12.50
2019-04-26T21:30:41.787Z,14.67
2019-04-26T21:33:11.022Z,12.50
2019-04-26T21:35:57.704Z,10.70
2019-04-26T21:38:33.351Z,15.20
2019-04-26T21:41:11.181Z,11.53
2019-04-26T21:43:38.288Z,11.10
2019-04-26T21:46:08.484Z,10.90
2019-04-26T21:48:41.873Z,10.00
2019-04-26T21:51:14.493Z,13.67
2019-04-26T21:53:43.865Z,12.40
2019-04-26T21:56:12.540Z,14.60
2019-04-26T21:58:43.609Z,13.50
2019-04-26T22:01:19.141Z,12.27
2019-04-26T22:03:54.411Z,9.90
2019-04-26T22:06:25.141Z,12.40
2019-04-26T22:08:58.965Z,13.80
2019-04-26T22:11:27.261Z,11.50
2019-04-26T22:14:04.420Z,11.90
2019-04-26T22:16:37.805Z,11.27
2019-04-26T22:19:23.860Z,12.40
2019-04-26T22:22:06.902Z,11.60
2019-04-26T22:24:37.949Z,13.70
2019-04-26T22:27:07.390Z,15.17
2019-04-26T22:29:36.916Z,14.20
2019-04-26T22:32:06.497Z,11.97
2019-04-26T22:34:37.308Z,10.03
2019-04-26T22:37:11.689Z,10.70
2019-04-26T22:39:39.969Z,10.70
2019-04-26T22:42:10.151Z,9.17
2019-04-26T22:44:41.215Z,13.40
2019-04-26T22:47:27.948Z,12.93
2019-04-26T22:49:57.407Z,15.33
2019-04-26T22:52:26.847Z,12.13
2019-04-26T22:54:56.354Z,11.40
2019-04-26T22:57:25.864Z,14.00
2019-04-26T22:59:55.318Z,13.70
2019-04-26T23:02:27.624Z,13.93
2019-04-26T23:05:00.617Z,15.90
2019-04-26T23:07:28.677Z,12.30
2019-04-26T23:09:58.114Z,12.50
2019-04-26T23:12:36.152Z,14.67
2019-04-26T23:15:08.677Z,11.50
2019-04-26T23:17:54.591Z,13.60
2019-04-26T23:20:29.077Z,11.30
2019-04-26T23:23:00.565Z,14.20
2019-04-26T23:25:31.252Z,10.70
2019-04-26T23:28:00.740Z,12.03
2019-04-26T23:30:31.699Z,10.60
2019-04-26T23:33:01.332Z,10.70
2019-04-26T23:35:30.771Z,10.67
2019-04-26T23:38:00.964Z,10.40
2019-04-26T23:40:31.223Z,11.30
2019-04-26T23:43:00.654Z,9.97
2019-04-26T23:45:30.103Z,10.47
2019-04-26T23:47:59.545Z,12.93
2019-04-26T23:50:29.429Z,11.40
2019-04-26T23:52:59.792Z,14.27
2019-04-26T23:55:29.221Z,9.87
2019-04-26T23:57:58.668Z,11.17
